Time;durP1;ratioP1;P1;durP2;ratioP2;P2;SDS_P1;SDS_P2;PMS_P1;PMS_P2;Temp;Humidity;BMP_temperature;BMP_pressure;BME280_temperature;BME280_humidity;BME280_pressure;Samples;Min_cycle;Max_cycle;Signal;HPM_P1;HPM_P2
2020/12/11 00:00:44;;;;;;;58.90;24.97;;;;;;;3.55;100.00;99878.16;4975320;28;20678;-72
2020/12/11 00:03:10;;;;;;;56.77;23.90;;;;;;;3.60;100.00;99874.72;4974559;28;20173;-72
2020/12/11 00:05:35;;;;;;;59.87;24.50;;;;;;;3.55;100.00;99867.41;4974660;28;20193;-71
2020/12/11 00:08:01;;;;;;;57.73;24.33;;;;;;;3.53;100.00;99869.50;4959533;28;20225;-72
2020/12/11 00:10:28;;;;;;;56.13;23.20;;;;;;;3.53;100.00;99866.81;5003655;28;20212;-71
2020/12/11 00:12:54;;;;;;;54.43;23.60;;;;;;;3.54;100.00;99863.09;5010712;28;20235;-71
2020/12/11 00:15:22;;;;;;;57.00;24.37;;;;;;;3.60;100.00;99859.41;5010147;28;20658;-72
2020/12/11 00:17:47;;;;;;;58.90;23.37;;;;;;;3.60;100.00;99854.06;4994224;28;20262;-70
2020/12/11 00:20:13;;;;;;;60.83;23.53;;;;;;;3.56;100.00;99858.28;5010451;28;20181;-71
2020/12/11 00:22:40;;;;;;;56.63;22.97;;;;;;;3.61;100.00;99850.31;4993914;28;20193;-70
2020/12/11 00:25:08;;;;;;;65.37;23.63;;;;;;;3.48;100.00;99836.44;4989406;28;20928;-70
2020/12/11 00:27:34;;;;;;;59.60;24.33;;;;;;;3.56;100.00;99836.03;4981408;28;20292;-70
2020/12/11 00:30:00;;;;;;;57.10;23.67;;;;;;;3.64;100.00;99828.34;4974345;28;20206;-70
2020/12/11 00:32:27;;;;;;;59.23;24.43;;;;;;;3.60;100.00;99832.56;4958064;28;20186;-70
2020/12/11 00:34:57;;;;;;;63.87;25.07;;;;;;;3.49;100.00;99825.44;4974106;28;20828;-70
2020/12/11 00:37:23;;;;;;;63.67;24.33;;;;;;;3.55;100.00;99823.63;4958570;28;20186;-70
2020/12/11 00:39:48;;;;;;;62.43;24.57;;;;;;;3.53;100.00;99809.66;4964192;28;20188;-70
2020/12/11 00:42:20;;;;;;;56.47;23.00;;;;;;;3.47;100.00;99799.94;4974057;28;20185;-70
2020/12/11 00:44:47;;;;;;;60.70;24.60;;;;;;;3.50;100.00;99805.63;4957779;28;20471;-70
2020/12/11 00:47:15;;;;;;;64.53;24.17;;;;;;;3.46;100.00;99793.75;4991164;28;20227;-70
2020/12/11 00:49:40;;;;;;;62.27;24.10;;;;;;;3.40;100.00;99793.91;4975442;28;20177;-70
2020/12/11 00:52:07;;;;;;;62.80;24.10;;;;;;;3.46;100.00;99793.75;4991559;28;20178;-70
2020/12/11 00:54:38;;;;;;;59.53;23.37;;;;;;;3.60;100.00;99799.56;4966966;28;20799;-70
2020/12/11 00:57:03;;;;;;;56.27;23.63;;;;;;;3.66;100.00;99791.31;5002318;28;20186;-70
2020/12/11 00:59:29;;;;;;;61.87;23.77;;;;;;;3.63;100.00;99789.16;4958806;28;20206;-71
2020/12/11 01:01:58;;;;;;;57.17;22.67;;;;;;;3.61;100.00;99791.28;4959638;28;20177;-71
2020/12/11 01:04:23;;;;;;;57.13;23.27;;;;;;;3.58;100.00;99786.38;4973542;28;20193;-71
2020/12/11 01:06:49;;;;;;;66.73;24.53;;;;;;;3.54;100.00;99790.63;4989975;28;20194;-71
2020/12/11 01:09:14;;;;;;;56.97;24.30;;;;;;;3.67;100.00;99784.91;4979091;28;20202;-71
2020/12/11 01:11:40;;;;;;;60.27;22.00;;;;;;;3.68;100.00;99783.84;4979290;28;20264;-70
2020/12/11 01:14:06;;;;;;;67.97;23.57;;;;;;;3.54;100.00;99785.25;4989801;28;20188;-70
2020/12/11 01:16:31;;;;;;;60.37;23.50;;;;;;;3.52;100.00;99787.38;4973462;28;20690;-71
2020/12/11 01:18:59;;;;;;;57.97;24.73;;;;;;;3.60;100.00;99781.56;4957827;28;20222;-70
2020/12/11 01:21:25;;;;;;;57.33;22.87;;;;;;;3.43;100.00;99771.16;4973793;28;20189;-70
2020/12/11 01:23:51;;;;;;;55.53;22.27;;;;;;;3.46;100.00;99777.66;4957431;28;20580;-70
2020/12/11 01:26:16;;;;;;;56.50;22.67;;;;;;;3.49;100.00;99779.00;4983922;28;20193;-70
2020/12/11 01:28:47;;;;;;;61.60;22.23;;;;;;;3.48;100.00;99770.16;5009609;28;20836;-71
2020/12/11 01:31:19;;;;;;;63.10;22.93;;;;;;;3.55;100.00;99759.22;4977743;28;20752;-70
2020/12/11 01:33:46;;;;;;;60.97;22.80;;;;;;;3.64;100.00;99758.53;4994110;28;20189;-70
2020/12/11 01:36:12;;;;;;;54.10;21.57;;;;;;;3.53;100.00;99762.16;4977538;28;20635;-69
2020/12/11 01:38:37;;;;;;;56.97;22.37;;;;;;;3.49;100.00;99752.97;5005804;28;20205;-70
2020/12/11 01:41:03;;;;;;;57.43;22.87;;;;;;;3.45;100.00;99749.19;4999367;28;20185;-72
2020/12/11 01:43:31;;;;;;;57.03;22.80;;;;;;;3.56;100.00;99734.81;4997690;28;20708;-73
2020/12/11 01:45:56;;;;;;;57.63;23.50;;;;;;;3.65;100.00;99732.53;5009125;28;20173;-70
2020/12/11 01:48:22;;;;;;;60.20;23.27;;;;;;;3.59;100.00;99734.34;4977518;28;20663;-70
2020/12/11 01:50:50;;;;;;;56.33;21.70;;;;;;;3.68;100.00;99732.84;4994001;28;20758;-70
2020/12/11 01:53:15;;;;;;;56.07;22.83;;;;;;;3.61;100.00;99732.22;4977233;28;20327;-69
2020/12/11 01:55:42;;;;;;;53.53;22.27;;;;;;;3.58;100.00;99731.91;4981237;28;20197;-73
2020/12/11 01:58:12;;;;;;;58.83;22.73;;;;;;;3.48;100.00;99729.91;4992049;28;20201;-72
2020/12/11 02:00:43;;;;;;;60.97;22.57;;;;;;;3.59;100.00;99720.94;4958555;28;20197;-70
2020/12/11 02:03:10;;;;;;;55.90;22.23;;;;;;;3.46;100.00;99712.41;4974489;28;20185;-70
2020/12/11 02:05:40;;;;;;;53.67;22.93;;;;;;;3.60;100.00;99714.47;4957189;28;20703;-70
2020/12/11 02:08:08;;;;;;;55.77;22.37;;;;;;;3.50;100.00;99710.88;4961283;28;20217;-70
2020/12/11 02:10:33;;;;;;;55.70;22.43;;;;;;;3.54;100.00;99703.94;4989598;28;20205;-70
2020/12/11 02:13:08;;;;;;;49.63;21.73;;;;;;;3.51;100.00;99710.59;5012360;28;20673;-70
2020/12/11 02:15:36;;;;;;;55.17;21.27;;;;;;;3.49;100.00;99703.88;4979812;28;20200;-70
2020/12/11 02:18:02;;;;;;;52.73;21.97;;;;;;;3.62;100.00;99695.44;5012896;28;20196;-70
2020/12/11 02:20:28;;;;;;;49.90;21.60;;;;;;;3.56;100.00;99696.44;5013997;28;20242;-73
2020/12/11 02:22:54;;;;;;;51.93;21.37;;;;;;;3.49;100.00;99691.25;5012144;28;20232;-69
2020/12/11 02:25:22;;;;;;;50.17;20.83;;;;;;;3.57;100.00;99695.38;5004213;28;20265;-70
2020/12/11 02:27:48;;;;;;;47.37;21.13;;;;;;;3.59;100.00;99688.72;4967031;28;20205;-70
2020/12/11 02:30:17;;;;;;;52.73;21.93;;;;;;;3.43;100.00;99690.66;4963597;28;20232;-70
2020/12/11 02:32:42;;;;;;;47.63;21.70;;;;;;;3.59;100.00;99690.56;4963807;28;20176;-72
2020/12/11 02:35:08;;;;;;;45.87;21.80;;;;;;;3.47;100.00;99679.97;4962254;28;20194;-72
2020/12/11 02:37:35;;;;;;;50.80;21.43;;;;;;;3.66;100.00;99681.25;4960680;28;20205;-72
2020/12/11 02:40:01;;;;;;;51.90;22.30;;;;;;;3.59;100.00;99680.66;4972786;28;20177;-69
2020/12/11 02:42:26;;;;;;;47.43;20.80;;;;;;;3.56;100.00;99681.16;5012202;28;20196;-72
2020/12/11 02:44:52;;;;;;;48.63;21.10;;;;;;;3.60;100.00;99679.59;4994995;28;20185;-70
2020/12/11 02:47:20;;;;;;;42.10;20.00;;;;;;;3.58;100.00;99673.66;5013084;28;20185;-71
2020/12/11 02:49:46;;;;;;;44.07;20.37;;;;;;;3.55;100.00;99676.88;4979607;28;20628;-72
2020/12/11 02:52:14;;;;;;;43.27;20.30;;;;;;;3.39;100.00;99660.84;4996108;28;20196;-71
2020/12/11 02:54:40;;;;;;;41.17;19.60;;;;;;;3.47;100.00;99666.56;4975314;28;20186;-72
2020/12/11 02:57:06;;;;;;;41.90;20.53;;;;;;;3.50;100.00;99665.25;5002966;28;20217;-71
2020/12/11 02:59:34;;;;;;;39.57;19.10;;;;;;;3.49;100.00;99664.41;4991659;28;20215;-70
2020/12/11 03:01:59;;;;;;;43.23;20.33;;;;;;;3.61;100.00;99664.31;4975580;28;20181;-70
2020/12/11 03:04:25;;;;;;;41.63;20.53;;;;;;;3.50;100.00;99659.88;4991768;28;20194;-69
2020/12/11 03:06:55;;;;;;;40.43;19.50;;;;;;;3.61;100.00;99657.06;4975695;28;20655;-71
2020/12/11 03:09:21;;;;;;;39.47;19.80;;;;;;;3.52;100.00;99642.47;4998119;28;20678;-71
2020/12/11 03:11:46;;;;;;;45.40;19.70;;;;;;;3.63;100.00;99636.16;4964797;28;20217;-71
2020/12/11 03:14:14;;;;;;;36.40;19.77;;;;;;;3.62;100.00;99641.75;4975818;28;20197;-71
2020/12/11 03:16:40;;;;;;;39.23;20.03;;;;;;;3.64;100.00;99640.44;4958920;28;20190;-71
2020/12/11 03:19:06;;;;;;;39.30;19.93;;;;;;;3.55;100.00;99639.28;4975013;28;20205;-71
2020/12/11 03:21:37;;;;;;;41.37;20.70;;;;;;;3.46;100.00;99627.38;4992204;28;20189;-71
2020/12/11 03:24:02;;;;;;;40.73;19.37;;;;;;;3.49;100.00;99629.53;4980666;28;20193;-71
2020/12/11 03:26:32;;;;;;;37.07;18.83;;;;;;;3.53;100.00;99627.97;4971972;28;20192;-71
2020/12/11 03:29:00;;;;;;;40.87;19.40;;;;;;;3.65;100.00;99625.16;4994988;28;20279;-71
2020/12/11 03:31:28;;;;;;;37.23;18.40;;;;;;;3.66;100.00;99621.41;4994784;28;20221;-71
2020/12/11 03:33:54;;;;;;;42.30;20.07;;;;;;;3.60;100.00;99612.47;4995099;28;20311;-71
2020/12/11 03:36:24;;;;;;;40.33;20.63;;;;;;;3.67;100.00;99602.34;4993859;28;20231;-71
2020/12/11 03:38:52;;;;;;;39.63;19.90;;;;;;;3.55;100.00;99609.78;4988271;28;20228;-71
2020/12/11 03:41:20;;;;;;;38.87;19.43;;;;;;;3.57;100.00;99606.81;4983134;28;20212;-71
2020/12/11 03:43:46;;;;;;;36.70;18.97;;;;;;;3.59;100.00;99618.09;4977999;28;20655;-72
2020/12/11 03:46:20;;;;;;;36.53;18.60;;;;;;;3.61;100.00;99608.75;4991177;28;20216;-72
2020/12/11 03:48:47;;;;;;;38.53;19.20;;;;;;;3.53;100.00;99606.50;4991410;28;20209;-72
2020/12/11 03:51:19;;;;;;;37.70;18.63;;;;;;;3.50;100.00;99590.91;4975477;28;20618;-71
2020/12/11 03:53:48;;;;;;;34.27;18.23;;;;;;;3.44;100.00;99596.47;4993939;28;20210;-71
2020/12/11 03:56:17;;;;;;;36.63;18.83;;;;;;;3.50;100.00;99601.66;4983688;28;20220;-71
2020/12/11 03:58:47;;;;;;;38.60;19.97;;;;;;;3.54;100.00;99596.59;5013634;28;20869;-71
2020/12/11 04:01:15;;;;;;;37.70;19.80;;;;;;;3.54;100.00;99591.22;4980806;28;20722;-72
2020/12/11 04:03:40;;;;;;;37.43;19.10;;;;;;;3.49;100.00;99597.34;4980429;28;20217;-74
2020/12/11 04:06:14;;;;;;;37.90;19.87;;;;;;;3.49;100.00;99602.69;4977876;28;20634;-72
2020/12/11 04:08:42;;;;;;;36.57;19.27;;;;;;;3.50;100.00;99590.91;4982471;28;20213;-71
2020/12/11 04:11:12;;;;;;;38.57;19.83;;;;;;;3.52;100.00;99586.09;4984888;28;20201;-71
2020/12/11 04:13:38;;;;;;;39.97;20.00;;;;;;;3.55;100.00;99582.09;4985353;28;20343;-72
2020/12/11 04:16:04;;;;;;;37.70;19.57;;;;;;;3.53;100.00;99587.72;5010609;28;20181;-72
2020/12/11 04:18:29;;;;;;;40.90;19.17;;;;;;;3.46;100.00;99580.94;4994492;28;20235;-70
2020/12/11 04:20:57;;;;;;;38.57;18.90;;;;;;;3.32;100.00;99581.59;4977855;28;20673;-70
2020/12/11 04:23:23;;;;;;;39.03;20.80;;;;;;;3.47;100.00;99583.38;4993945;28;20682;-71
2020/12/11 04:25:52;;;;;;;39.87;19.87;;;;;;;3.50;100.00;99585.56;5009323;28;20280;-71
2020/12/11 04:28:17;;;;;;;37.00;19.80;;;;;;;3.47;100.00;99583.38;4959717;28;20209;-71
2020/12/11 04:30:43;;;;;;;38.70;19.67;;;;;;;3.49;100.00;99578.56;4959764;28;20355;-70
2020/12/11 04:33:09;;;;;;;38.33;19.67;;;;;;;3.42;100.00;99581.69;4975109;28;20420;-70
2020/12/11 04:35:37;;;;;;;40.87;21.03;;;;;;;3.45;100.00;99582.00;5004837;28;20702;-70
2020/12/11 04:38:05;;;;;;;40.50;19.90;;;;;;;3.51;100.00;99581.00;4992477;28;20204;-70
2020/12/11 04:40:30;;;;;;;39.37;20.20;;;;;;;3.48;100.00;99571.59;4986381;28;20262;-71
2020/12/11 04:42:58;;;;;;;37.77;20.07;;;;;;;3.45;100.00;99577.44;4982260;28;20548;-71
2020/12/11 04:45:24;;;;;;;43.53;20.87;;;;;;;3.53;100.00;99579.66;5003407;28;20584;-70
2020/12/11 04:47:50;;;;;;;44.60;20.73;;;;;;;3.60;100.00;99574.91;4987200;28;20217;-71
2020/12/11 04:50:17;;;;;;;44.30;20.00;;;;;;;3.54;100.00;99554.47;4999427;28;20263;-71
2020/12/11 04:52:44;;;;;;;44.70;21.77;;;;;;;3.52;100.00;99561.97;4968453;28;20185;-71
2020/12/11 04:55:13;;;;;;;46.07;21.70;;;;;;;3.61;100.00;99555.06;4989996;28;20251;-70
2020/12/11 04:57:47;;;;;;;46.20;22.10;;;;;;;3.62;100.00;99562.03;4996747;28;20250;-71
2020/12/11 05:00:16;;;;;;;44.53;22.47;;;;;;;3.62;100.00;99561.25;4990288;28;20181;-70
2020/12/11 05:02:42;;;;;;;50.07;21.90;;;;;;;3.57;100.00;99548.59;4973677;28;20189;-70
2020/12/11 05:05:08;;;;;;;46.37;21.43;;;;;;;3.54;100.00;99550.97;4956509;28;20200;-69
2020/12/11 05:07:36;;;;;;;45.80;22.03;;;;;;;3.49;100.00;99551.72;4973860;28;20186;-73
2020/12/11 05:10:05;;;;;;;51.70;22.53;;;;;;;3.62;100.00;99543.25;4978659;28;20300;-72
2020/12/11 05:12:31;;;;;;;49.20;22.57;;;;;;;3.56;100.00;99541.59;5009747;28;20207;-72
2020/12/11 05:15:01;;;;;;;54.33;23.87;;;;;;;3.54;100.00;99535.69;5009385;28;20193;-70
2020/12/11 05:17:31;;;;;;;53.00;23.77;;;;;;;3.56;100.00;99535.44;4993893;28;20189;-71
2020/12/11 05:19:59;;;;;;;59.43;23.97;;;;;;;3.61;100.00;99532.78;4978878;28;20256;-71
2020/12/11 05:22:26;;;;;;;52.60;23.80;;;;;;;3.58;100.00;99541.34;4977351;28;20734;-71
2020/12/11 05:24:53;;;;;;;57.00;23.97;;;;;;;3.52;100.00;99527.06;4988250;28;20190;-71
2020/12/11 05:27:30;;;;;;;50.47;21.87;;;;;;;3.49;100.00;99524.88;4985852;28;20185;-71
2020/12/11 05:30:00;;;;;;;56.60;23.27;;;;;;;3.38;100.00;99533.09;4993171;28;20190;-71
2020/12/11 05:32:38;;;;;;;57.80;23.03;;;;;;;3.49;100.00;99540.97;4958451;28;20185;-71
2020/12/11 05:35:05;;;;;;;54.67;23.47;;;;;;;3.55;100.00;99533.78;4973491;28;20281;-71
2020/12/11 05:37:31;;;;;;;54.63;20.93;;;;;;;3.32;100.00;99533.31;4977959;28;20166;-71
2020/12/11 05:39:57;;;;;;;60.43;25.60;;;;;;;3.38;100.00;99533.09;4972358;28;20216;-71
2020/12/11 05:42:22;;;;;;;56.20;23.37;;;;;;;3.37;100.00;99536.84;4991429;28;20181;-71
2020/12/11 05:44:48;;;;;;;57.83;24.53;;;;;;;3.37;100.00;99542.22;4960934;28;20190;-71
2020/12/11 05:47:24;;;;;;;62.87;25.40;;;;;;;3.39;100.00;99544.63;4961396;28;20181;-71
2020/12/11 05:49:50;;;;;;;55.73;24.10;;;;;;;3.45;100.00;99534.50;4962180;28;20655;-71
2020/12/11 05:52:17;;;;;;;60.97;23.67;;;;;;;3.48;100.00;99533.22;5011410;28;20173;-72
2020/12/11 05:54:48;;;;;;;64.10;24.50;;;;;;;3.51;100.00;99536.16;4992011;28;20725;-71
2020/12/11 05:57:20;;;;;;;58.07;23.93;;;;;;;3.54;100.00;99533.00;5005146;28;20200;-71
2020/12/11 05:59:45;;;;;;;55.47;24.27;;;;;;;3.45;100.00;99529.16;4997048;28;20181;-71
2020/12/11 06:02:13;;;;;;;61.17;25.83;;;;;;;3.52;100.00;99535.13;5014563;28;20170;-71
2020/12/11 06:04:39;;;;;;;67.13;26.77;;;;;;;3.40;100.00;99541.69;5010230;28;20198;-71
2020/12/11 06:07:13;;;;;;;64.13;24.67;;;;;;;3.42;100.00;99538.78;4988145;28;20193;-72
2020/12/11 06:09:40;;;;;;;64.33;25.57;;;;;;;3.49;100.00;99534.81;4998947;28;20227;-71
2020/12/11 06:12:06;;;;;;;60.17;24.50;;;;;;;3.41;100.00;99534.44;5004456;28;20251;-71
2020/12/11 06:15:00;;;;;;;59.43;25.17;;;;;;;3.49;100.00;99535.63;4986604;28;20200;-70
2020/12/11 06:17:26;;;;;;;65.97;25.93;;;;;;;3.49;100.00;99540.19;4995352;28;20174;-70
2020/12/11 06:22:22;;;;;;;67.37;25.93;;;;;;;3.53;100.00;99531.34;5128151;27;20507;-71
2020/12/11 06:24:47;;;;;;;63.60;25.93;;;;;;;3.60;100.00;99526.59;5126633;28;20184;-70
2020/12/11 06:27:15;;;;;;;68.90;26.63;;;;;;;3.58;100.00;99526.03;5089293;28;20600;-70
2020/12/11 06:29:44;;;;;;;65.07;26.20;;;;;;;3.53;100.00;99531.34;5106054;28;20213;-70
2020/12/11 06:32:13;;;;;;;62.00;25.43;;;;;;;3.61;100.00;99525.53;5106010;28;20201;-74
2020/12/11 06:34:40;;;;;;;61.07;25.43;;;;;;;3.57;100.00;99524.44;5105293;28;20647;-70
2020/12/11 06:37:07;;;;;;;61.63;25.70;;;;;;;3.57;100.00;99520.91;5105873;28;20189;-71
2020/12/11 06:39:49;;;;;;;69.03;26.13;;;;;;;3.65;100.00;99517.78;5101437;28;20201;-71
2020/12/11 06:42:39;;;;;;;70.50;26.43;;;;;;;3.60;100.00;99515.06;5089525;28;20182;-72
2020/12/11 06:45:23;;;;;;;64.20;26.20;;;;;;;3.56;100.00;99506.69;5109830;28;20200;-71
2020/12/11 06:47:57;;;;;;;60.77;27.07;;;;;;;3.60;100.00;99513.19;5127246;28;20204;-72
2020/12/11 06:50:32;;;;;;;67.43;25.73;;;;;;;3.46;100.00;99513.84;5127186;28;20249;-72
2020/12/11 06:53:00;;;;;;;67.13;25.10;;;;;;;3.45;100.00;99517.59;5109767;28;20653;-71
2020/12/11 06:55:49;;;;;;;70.63;25.83;;;;;;;3.51;100.00;99512.00;5088422;28;20174;-71
2020/12/11 06:58:18;;;;;;;67.50;26.00;;;;;;;3.50;100.00;99510.41;5125080;28;20202;-71
2020/12/11 07:00:54;;;;;;;67.10;25.87;;;;;;;3.50;100.00;99498.88;5109869;28;20247;-71
2020/12/11 07:03:26;;;;;;;71.80;26.17;;;;;;;3.55;100.00;99491.69;5109784;28;20196;-72
2020/12/11 07:06:03;;;;;;;70.77;25.97;;;;;;;3.45;100.00;99493.47;5092913;28;20181;-72
2020/12/11 07:08:29;;;;;;;65.80;25.23;;;;;;;3.50;100.00;99482.78;5085521;28;20216;-71
2020/12/11 07:10:54;;;;;;;62.73;24.57;;;;;;;3.46;100.00;99481.66;5105106;28;20538;-71
2020/12/11 07:13:20;;;;;;;62.77;25.97;;;;;;;3.45;100.00;99478.16;5109794;28;20561;-71
2020/12/11 07:15:46;;;;;;;73.27;26.27;;;;;;;3.43;100.00;99472.25;5126837;28;20202;-72
2020/12/11 07:18:16;;;;;;;64.53;26.27;;;;;;;3.54;100.00;99473.94;5094086;28;20221;-70
2020/12/11 07:21:08;;;;;;;64.47;26.23;;;;;;;3.52;100.00;99470.72;5075852;28;20212;-70
2020/12/11 07:23:34;;;;;;;59.23;25.97;;;;;;;3.53;100.00;99460.78;5124809;27;20193;-70
2020/12/11 07:26:00;;;;;;;66.03;25.57;;;;;;;3.52;100.00;99462.66;5092653;28;20199;-70
2020/12/11 07:28:27;;;;;;;67.77;25.80;;;;;;;3.60;100.00;99459.50;5105571;28;20228;-70
2020/12/11 07:30:53;;;;;;;63.30;25.80;;;;;;;3.61;100.00;99447.72;5107512;28;20538;-70
2020/12/11 07:33:21;;;;;;;67.47;25.27;;;;;;;3.62;100.00;99449.31;5093810;28;20185;-71
2020/12/11 07:35:49;;;;;;;60.20;24.63;;;;;;;3.62;100.00;99459.25;5058250;28;20190;-70
2020/12/11 07:38:16;;;;;;;67.53;24.93;;;;;;;3.62;100.00;99457.38;5079612;28;20213;-71
2020/12/11 07:40:42;;;;;;;71.73;25.73;;;;;;;3.62;100.00;99460.03;5087336;28;20193;-70
2020/12/11 07:43:11;;;;;;;64.60;26.00;;;;;;;3.69;100.00;99457.97;5112472;28;20192;-70
2020/12/11 07:45:38;;;;;;;60.40;24.90;;;;;;;3.73;100.00;99448.31;5062015;28;20181;-71
2020/12/11 07:48:04;;;;;;;60.80;25.50;;;;;;;3.66;100.00;99450.41;5111251;28;20207;-70
2020/12/11 07:50:30;;;;;;;62.33;24.90;;;;;;;3.67;100.00;99443.19;5095659;28;20173;-70
2020/12/11 07:52:58;;;;;;;57.90;23.47;;;;;;;3.67;100.00;99441.31;5079003;28;20677;-71
2020/12/11 07:55:27;;;;;;;59.67;24.13;;;;;;;3.80;100.00;99435.50;5104112;28;20185;-71
2020/12/11 07:57:59;;;;;;;57.63;24.07;;;;;;;3.84;100.00;99431.22;5075240;28;20255;-71
2020/12/11 08:00:25;;;;;;;59.97;23.97;;;;;;;3.83;100.00;99429.63;5081228;28;20202;-70
2020/12/11 08:03:04;;;;;;;60.03;24.23;;;;;;;3.75;100.00;99437.34;5058823;28;20186;-70
2020/12/11 08:05:30;;;;;;;57.80;23.60;;;;;;;3.77;100.00;99427.94;5093541;28;20294;-71
2020/12/11 08:07:56;;;;;;;56.23;22.73;;;;;;;3.86;100.00;99421.03;5081012;28;20322;-71
2020/12/11 08:10:33;;;;;;;56.10;24.13;;;;;;;3.69;100.00;99417.69;5082218;28;20171;-70
2020/12/11 08:13:07;;;;;;;61.57;23.63;;;;;;;3.78;100.00;99408.09;5068983;28;20249;-71
2020/12/11 08:15:33;;;;;;;62.20;24.80;;;;;;;3.77;100.00;99403.78;5074883;28;20189;-70
2020/12/11 08:18:19;;;;;;;57.93;23.87;;;;;;;3.87;100.00;99391.22;5092955;28;20275;-70
2020/12/11 08:20:58;;;;;;;56.47;22.73;;;;;;;3.91;100.00;99378.09;5091308;28;20770;-70
2020/12/11 08:23:43;;;;;;;59.87;24.20;;;;;;;3.93;100.00;99384.00;5090802;28;20167;-70
2020/12/11 08:26:11;;;;;;;54.47;22.20;;;;;;;3.92;100.00;99380.53;5109828;28;20234;-69
2020/12/11 08:28:39;;;;;;;58.33;23.97;;;;;;;3.94;99.79;99382.97;5095476;28;20221;-69
2020/12/11 08:31:26;;;;;;;56.27;23.60;;;;;;;4.07;100.00;99379.81;5085652;28;20178;-70
2020/12/11 08:34:02;;;;;;;50.23;23.10;;;;;;;3.88;100.00;99373.25;5101942;28;20188;-72
2020/12/11 08:36:28;;;;;;;58.97;23.20;;;;;;;3.90;100.00;99376.47;5118124;28;20933;-71
2020/12/11 08:39:14;;;;;;;54.07;22.83;;;;;;;3.95;99.94;99373.81;5106915;28;20195;-71
2020/12/11 08:49:54;;;;;;;51.77;21.73;;;;;;;4.10;99.39;99365.81;5086545;28;20318;-71
2020/12/11 08:52:19;;;;;;;53.33;23.07;;;;;;;4.20;98.94;99361.31;5113200;28;20181;-71
2020/12/11 08:54:47;;;;;;;50.67;22.37;;;;;;;4.20;98.82;99367.50;5113189;28;20195;-71
2020/12/11 08:57:15;;;;;;;47.07;20.67;;;;;;;4.12;98.98;99369.06;5112442;28;20213;-71
2020/12/11 08:59:40;;;;;;;46.43;21.47;;;;;;;4.07;99.24;99374.44;5095566;28;20354;-71
2020/12/11 09:02:08;;;;;;;41.87;21.10;;;;;;;4.07;99.12;99372.53;5094875;28;20284;-71
2020/12/11 09:04:34;;;;;;;42.17;20.73;;;;;;;4.14;98.81;99380.34;5095140;28;20659;-71
2020/12/11 09:07:00;;;;;;;43.90;21.17;;;;;;;4.26;98.38;99381.75;5095555;28;20231;-71
2020/12/11 09:09:25;;;;;;;42.60;20.90;;;;;;;4.19;98.32;99385.75;5058932;28;20203;-70
2020/12/11 09:11:51;;;;;;;43.63;21.07;;;;;;;4.23;98.48;99375.03;5057011;28;20579;-71
2020/12/11 09:14:17;;;;;;;45.10;20.87;;;;;;;4.21;98.59;99384.41;5093777;28;20177;-71
2020/12/11 09:16:43;;;;;;;43.00;20.37;;;;;;;4.32;98.63;99386.91;5111931;28;20224;-72
2020/12/11 09:19:11;;;;;;;41.77;19.97;;;;;;;4.16;98.05;99372.84;5111095;28;20208;-71
2020/12/11 09:21:39;;;;;;;42.40;19.90;;;;;;;4.14;98.65;99372.28;5093961;28;20202;-71
2020/12/11 09:24:04;;;;;;;41.17;21.53;;;;;;;4.23;98.73;99369.66;5115485;28;20213;-71
2020/12/11 09:26:31;;;;;;;41.93;19.47;;;;;;;4.22;98.89;99370.72;5099389;28;20563;-71
2020/12/11 09:29:09;;;;;;;41.27;21.20;;;;;;;4.37;97.32;99375.34;5079657;28;20664;-71
2020/12/11 09:31:36;;;;;;;41.60;20.63;;;;;;;4.32;97.59;99370.78;5112073;28;20177;-70
2020/12/11 09:34:05;;;;;;;41.67;20.70;;;;;;;4.25;97.70;99359.47;5110636;28;20289;-71
2020/12/11 09:36:30;;;;;;;41.43;20.30;;;;;;;4.33;97.56;99361.63;5060474;28;20638;-71
2020/12/11 09:38:56;;;;;;;43.63;21.47;;;;;;;4.36;97.24;99366.47;5092449;28;20197;-72
2020/12/11 09:41:28;;;;;;;46.87;20.57;;;;;;;4.38;97.11;99367.03;5059041;28;20639;-72
2020/12/11 09:46:55;;;;;;;44.30;21.07;;;;;;;4.42;96.75;99365.41;5060311;28;20250;-71
2020/12/11 09:49:37;;;;;;;39.80;19.93;;;;;;;4.28;97.21;99358.91;5061609;28;20206;-71
2020/12/11 09:52:19;;;;;;;39.40;19.90;;;;;;;4.48;96.34;99353.59;5106253;28;20189;-71
2020/12/11 09:54:45;;;;;;;42.10;19.63;;;;;;;4.55;96.27;99351.47;5089273;28;20186;-71
2020/12/11 09:57:13;;;;;;;35.83;18.83;;;;;;;4.49;96.58;99351.75;5107585;28;20719;-70
2020/12/11 09:59:49;;;;;;;38.67;20.33;;;;;;;4.56;96.33;99350.41;5110057;28;20201;-71
2020/12/11 10:04:52;;;;;;;43.90;20.10;;;;;;;4.63;96.25;99334.81;5109153;28;20181;-71
2020/12/11 10:07:18;;;;;;;39.07;19.17;;;;;;;4.53;95.43;99345.56;5072334;28;20678;-71
2020/12/11 10:09:44;;;;;;;42.17;20.70;;;;;;;4.60;95.89;99335.38;5072672;28;20182;-70
2020/12/11 10:12:10;;;;;;;35.27;17.97;;;;;;;4.73;94.73;99329.47;5099738;28;20190;-70
2020/12/11 10:14:39;;;;;;;38.07;20.07;;;;;;;4.56;95.11;99328.91;5075397;28;20185;-71
2020/12/11 10:17:04;;;;;;;40.60;20.27;;;;;;;4.57;95.62;99319.75;5110017;28;20347;-70
2020/12/11 10:19:32;;;;;;;35.40;18.70;;;;;;;4.71;95.27;99321.66;5076436;28;20203;-70
2020/12/11 10:22:00;;;;;;;34.27;18.87;;;;;;;4.84;94.80;99320.34;5109640;28;20217;-71
2020/12/11 10:24:28;;;;;;;40.53;19.40;;;;;;;4.88;94.31;99311.47;5109376;28;20186;-72
2020/12/11 10:26:57;;;;;;;35.53;19.40;;;;;;;4.89;94.09;99307.72;5072529;28;20198;-71
2020/12/11 10:29:22;;;;;;;40.63;19.20;;;;;;;4.78;93.91;99310.63;5089421;28;20202;-71
2020/12/11 10:31:50;;;;;;;40.33;20.20;;;;;;;4.83;93.76;99302.59;5089402;28;20704;-71
2020/12/11 10:34:19;;;;;;;37.03;19.40;;;;;;;4.97;93.63;99295.59;5106828;28;20210;-71
2020/12/11 10:36:47;;;;;;;38.07;19.93;;;;;;;4.96;93.87;99299.34;5073492;28;20181;-71
2020/12/11 10:39:15;;;;;;;34.87;18.23;;;;;;;4.80;93.73;99290.50;5073500;28;20200;-71
2020/12/11 10:41:43;;;;;;;42.17;19.60;;;;;;;4.88;94.11;99294.53;5102265;28;20213;-70
2020/12/11 10:44:09;;;;;;;43.90;20.07;;;;;;;4.96;93.11;99281.31;5116851;28;20201;-71
2020/12/11 10:46:35;;;;;;;35.73;18.80;;;;;;;4.94;93.29;99280.00;5118710;28;20639;-70
2020/12/11 10:49:00;;;;;;;36.37;19.70;;;;;;;4.91;93.93;99283.22;5093562;28;20206;-71
2020/12/11 10:51:29;;;;;;;38.53;18.43;;;;;;;4.95;93.55;99289.69;5108953;28;20554;-71
2020/12/11 10:53:54;;;;;;;38.83;19.73;;;;;;;4.93;93.38;99287.25;5109422;28;20190;-70
2020/12/11 10:56:20;;;;;;;38.30;19.07;;;;;;;4.92;93.78;99276.78;5073820;28;20572;-71
2020/12/11 10:58:51;;;;;;;37.93;19.57;;;;;;;4.91;93.78;99267.06;5109279;28;20255;-70
2020/12/11 11:01:20;;;;;;;33.53;18.10;;;;;;;4.98;93.20;99269.25;5109096;28;20232;-71
2020/12/11 11:03:45;;;;;;;39.33;19.03;;;;;;;4.89;92.89;99263.84;5092931;28;20230;-71
2020/12/11 11:09:08;;;;;;;35.57;19.03;;;;;;;4.98;92.96;99258.47;5112627;28;20578;-70
2020/12/11 11:11:53;;;;;;;34.63;17.73;;;;;;;5.06;92.83;99260.63;5111907;28;20232;-71
2020/12/11 11:29:42;;;;;;;35.17;17.97;;;;;;;4.83;92.50;99246.09;5093489;28;20195;-71
2020/12/11 11:32:08;;;;;;;35.10;18.00;;;;;;;5.01;92.44;99252.53;5108994;28;20640;-71
2020/12/11 11:34:34;;;;;;;33.10;18.10;;;;;;;5.03;91.89;99239.63;5093426;28;20178;-71
2020/12/11 11:37:04;;;;;;;32.23;17.80;;;;;;;5.13;92.09;99236.13;5108865;28;20187;-71
2020/12/11 11:39:30;;;;;;;35.27;18.60;;;;;;;5.16;92.22;99233.69;5092564;28;20202;-71
2020/12/11 11:41:56;;;;;;;33.53;17.20;;;;;;;5.18;90.64;99226.16;5105407;28;20202;-71
2020/12/11 11:46:49;;;;;;;29.93;17.57;;;;;;;5.23;90.93;99239.59;5067049;28;20737;-73
2020/12/11 11:49:20;;;;;;;31.27;17.23;;;;;;;5.20;90.77;99224.00;5074483;28;20301;-72
2020/12/11 11:51:57;;;;;;;32.10;18.20;;;;;;;5.11;90.16;99231.03;5087254;28;20275;-72
2020/12/11 11:54:25;;;;;;;29.53;16.73;;;;;;;5.10;90.82;99226.72;5082660;28;20189;-71
2020/12/11 11:56:51;;;;;;;31.93;17.23;;;;;;;5.25;90.45;99221.28;5074750;28;20178;-73
2020/12/11 11:59:16;;;;;;;29.20;17.20;;;;;;;5.06;89.51;99212.19;5106212;28;20212;-71
2020/12/11 12:01:42;;;;;;;28.77;17.10;;;;;;;5.03;90.90;99203.84;5102795;28;20613;-71